createdAt,value
2022-08-26T00:02:01.822Z,62.99
2022-08-26T00:04:29.127Z,62.59
2022-08-26T00:06:56.877Z,63.19
2022-08-26T00:09:25.631Z,64.17
2022-08-26T00:11:54.330Z,64.42
2022-08-26T00:14:27.113Z,64.67
2022-08-26T00:16:57.024Z,64.17
2022-08-26T00:19:24.942Z,64.75
2022-08-26T00:21:52.202Z,64.68
2022-08-26T00:24:21.759Z,64.86
2022-08-26T00:26:49.657Z,65.12
2022-08-26T00:29:17.953Z,65.07
2022-08-26T00:31:47.737Z,66.00
2022-08-26T00:34:16.557Z,66.07
2022-08-26T00:36:46.709Z,65.21
2022-08-26T00:39:14.025Z,66.48
2022-08-26T00:41:41.852Z,66.96
2022-08-26T00:44:11.024Z,67.22
2022-08-26T00:46:54.849Z,66.80
2022-08-26T00:49:37.765Z,66.31
2022-08-26T00:52:12.114Z,66.76
2022-08-26T00:54:49.469Z,66.54
2022-08-26T00:57:20.573Z,66.34
2022-08-26T00:59:54.280Z,66.56
2022-08-26T01:02:21.796Z,66.69
2022-08-26T01:04:55.631Z,66.89
2022-08-26T01:07:26.222Z,66.44
2022-08-26T01:09:55.643Z,66.62
2022-08-26T01:12:26.376Z,66.58
2022-08-26T01:14:54.696Z,66.92
2022-08-26T01:17:21.828Z,67.12
2022-08-26T01:20:04.366Z,66.96
2022-08-26T01:22:53.550Z,66.39
2022-08-26T01:25:23.522Z,66.08
2022-08-26T01:27:52.180Z,66.32
2022-08-26T01:30:19.999Z,66.33
2022-08-26T01:32:50.154Z,66.63
2022-08-26T01:35:17.549Z,66.58
2022-08-26T01:37:47.975Z,66.14
2022-08-26T01:40:25.683Z,66.65
2022-08-26T01:42:54.445Z,67.01
2022-08-26T01:45:27.510Z,66.80
2022-08-26T01:47:58.239Z,66.86
2022-08-26T01:50:35.878Z,66.70
2022-08-26T01:53:11.353Z,66.47
2022-08-26T01:55:44.328Z,66.52
2022-08-26T01:58:18.575Z,66.58
2022-08-26T02:00:46.796Z,66.56
2022-08-26T02:03:21.324Z,66.90
2022-08-26T02:06:09.219Z,66.86
2022-08-26T02:08:45.605Z,67.73
2022-08-26T02:11:13.874Z,68.53
2022-08-26T02:13:53.932Z,68.58
2022-08-26T02:16:27.358Z,67.96
2022-08-26T02:18:57.835Z,67.68
2022-08-26T02:21:25.441Z,67.93
2022-08-26T02:23:53.592Z,68.36
2022-08-26T02:26:27.120Z,68.03
2022-08-26T02:29:12.103Z,68.25
2022-08-26T02:31:39.855Z,68.54
2022-08-26T02:34:19.005Z,68.61
2022-08-26T02:36:46.895Z,69.06
2022-08-26T02:39:17.996Z,68.85
2022-08-26T02:41:49.393Z,69.05
2022-08-26T02:44:16.449Z,69.17
2022-08-26T02:46:46.899Z,69.55
2022-08-26T02:49:17.692Z,69.51
2022-08-26T02:51:45.779Z,69.22
2022-08-26T02:54:14.169Z,69.65
2022-08-26T02:56:41.457Z,69.72
2022-08-26T02:59:09.188Z,69.18
2022-08-26T03:01:36.874Z,69.28
2022-08-26T03:04:06.586Z,69.55
2022-08-26T03:06:33.859Z,69.91
2022-08-26T03:09:00.941Z,70.30
2022-08-26T03:11:32.782Z,69.90
2022-08-26T03:14:01.821Z,69.83
2022-08-26T03:16:37.880Z,69.57
2022-08-26T03:19:08.653Z,69.67
2022-08-26T03:21:37.654Z,69.84
2022-08-26T03:24:05.697Z,69.53
2022-08-26T03:26:32.781Z,69.68
2022-08-26T03:29:18.178Z,70.07
2022-08-26T03:31:47.059Z,70.39
2022-08-26T03:34:14.650Z,70.00
2022-08-26T03:36:42.129Z,70.30
2022-08-26T03:39:13.630Z,70.10
2022-08-26T03:41:41.706Z,70.55
2022-08-26T03:44:09.253Z,70.77
2022-08-26T03:46:37.278Z,71.02
2022-08-26T03:49:08.516Z,70.73
2022-08-26T03:51:38.888Z,70.80
2022-08-26T03:54:08.330Z,71.32
2022-08-26T03:56:36.633Z,71.58
2022-08-26T03:59:05.386Z,71.25
2022-08-26T04:01:35.490Z,71.57
2022-08-26T04:04:03.165Z,72.65
2022-08-26T04:06:42.765Z,72.60
2022-08-26T04:09:17.937Z,72.35
2022-08-26T04:11:47.508Z,72.21
2022-08-26T04:14:23.768Z,72.21
2022-08-26T04:16:53.221Z,71.82
2022-08-26T04:19:24.372Z,71.64
2022-08-26T04:21:53.408Z,71.66
2022-08-26T04:24:24.820Z,71.80
2022-08-26T04:26:52.218Z,72.12
2022-08-26T04:29:24.522Z,72.40
2022-08-26T04:31:55.466Z,73.11
2022-08-26T04:34:28.697Z,72.84
2022-08-26T04:36:57.104Z,72.18
2022-08-26T04:39:25.576Z,73.09
2022-08-26T04:41:55.159Z,73.74
2022-08-26T04:44:24.253Z,73.00
2022-08-26T04:46:52.243Z,73.92
2022-08-26T04:49:20.679Z,73.75
2022-08-26T04:51:48.903Z,73.71
2022-08-26T04:54:16.307Z,73.63
2022-08-26T04:56:47.176Z,73.40
2022-08-26T04:59:18.069Z,74.01
2022-08-26T05:01:52.484Z,74.53
2022-08-26T05:04:21.068Z,74.65
2022-08-26T05:06:49.446Z,75.13
2022-08-26T05:09:18.554Z,75.25
2022-08-26T05:11:51.830Z,74.79
2022-08-26T05:14:22.154Z,74.68
2022-08-26T05:16:49.773Z,74.49
2022-08-26T05:19:18.934Z,74.36
2022-08-26T05:21:48.240Z,74.36
2022-08-26T05:24:15.805Z,76.51
2022-08-26T05:26:44.633Z,77.17
2022-08-26T05:29:12.268Z,77.06
2022-08-26T05:31:39.628Z,76.92
2022-08-26T05:34:07.426Z,76.96
2022-08-26T05:36:36.088Z,76.60
2022-08-26T05:39:10.372Z,77.06
2022-08-26T05:41:41.107Z,76.94
2022-08-26T05:44:13.985Z,77.03
2022-08-26T05:46:42.501Z,77.72
2022-08-26T05:49:13.483Z,77.21
2022-08-26T05:51:45.063Z,76.50
2022-08-26T05:54:13.979Z,75.98
2022-08-26T05:56:46.387Z,76.37
2022-08-26T05:59:15.487Z,76.92
2022-08-26T06:01:43.739Z,77.06
2022-08-26T06:04:12.006Z,75.96
2022-08-26T06:06:41.359Z,74.76
2022-08-26T06:09:11.164Z,74.52
2022-08-26T06:11:38.876Z,74.40
2022-08-26T06:14:09.832Z,74.62
2022-08-26T06:16:41.288Z,74.25
2022-08-26T06:19:11.919Z,73.56
2022-08-26T06:21:42.227Z,73.17
2022-08-26T06:24:32.776Z,73.26
2022-08-26T06:27:08.223Z,72.79
2022-08-26T06:29:36.501Z,71.78
2022-08-26T06:32:05.403Z,71.69
2022-08-26T06:34:34.076Z,71.44
2022-08-26T06:37:02.781Z,71.08
2022-08-26T06:39:31.790Z,70.80
2022-08-26T06:42:03.167Z,70.48
2022-08-26T06:44:33.246Z,70.20
2022-08-26T06:47:00.057Z,69.82
2022-08-26T06:49:27.789Z,70.01
2022-08-26T06:52:01.158Z,69.71
2022-08-26T06:54:31.433Z,69.47
2022-08-26T06:56:59.239Z,69.56
2022-08-26T06:59:26.501Z,68.94
2022-08-26T07:01:54.561Z,68.41
2022-08-26T07:04:24.413Z,67.63
2022-08-26T07:06:53.761Z,67.05
2022-08-26T07:09:25.174Z,66.80
2022-08-26T07:11:56.130Z,66.64
2022-08-26T07:14:24.872Z,66.11
2022-08-26T07:16:52.300Z,65.81
2022-08-26T07:19:29.950Z,65.13
2022-08-26T07:22:02.087Z,64.53
2022-08-26T07:24:29.492Z,63.90
2022-08-26T07:27:06.633Z,63.43
2022-08-26T07:32:02.282Z,62.22
2022-08-26T07:34:32.065Z,61.78
2022-08-26T07:37:00.331Z,61.25
2022-08-26T07:39:28.369Z,60.64
2022-08-26T07:42:01.380Z,60.37
2022-08-26T07:44:31.018Z,59.63
2022-08-26T07:46:59.275Z,59.22
2022-08-26T07:49:27.198Z,59.15
2022-08-26T07:51:55.709Z,58.50
2022-08-26T07:54:26.736Z,58.11
2022-08-26T07:56:54.565Z,57.12
2022-08-26T07:59:23.304Z,56.69
2022-08-26T08:01:50.977Z,55.98
2022-08-26T08:04:25.587Z,55.43
2022-08-26T08:06:54.866Z,55.14
2022-08-26T08:09:23.073Z,55.00
2022-08-26T08:11:51.301Z,53.79
2022-08-26T08:14:22.006Z,53.34
2022-08-26T08:16:51.291Z,52.60
2022-08-26T08:19:22.039Z,52.03
2022-08-26T08:21:49.595Z,51.11
2022-08-26T08:24:21.633Z,50.65
2022-08-26T08:26:48.736Z,50.15
2022-08-26T08:29:15.581Z,49.94
2022-08-26T08:31:56.838Z,50.31
2022-08-26T08:34:29.047Z,50.58
2022-08-26T08:36:57.195Z,50.85
2022-08-26T08:39:26.213Z,51.15
2022-08-26T08:42:29.239Z,50.45
2022-08-26T08:45:03.390Z,49.98
2022-08-26T08:47:42.811Z,48.57
2022-08-26T08:50:37.063Z,47.16
2022-08-26T08:53:32.278Z,46.64
2022-08-26T08:56:28.963Z,47.00
2022-08-26T08:59:31.386Z,45.93
2022-08-26T09:02:14.464Z,47.52
2022-08-26T09:05:15.069Z,48.23
2022-08-26T09:08:11.606Z,47.86
2022-08-26T09:10:54.822Z,48.38
2022-08-26T09:13:25.442Z,48.17
2022-08-26T09:16:32.206Z,47.11
2022-08-26T09:19:40.070Z,45.80
2022-08-26T09:22:09.423Z,44.33
2022-08-26T09:24:41.926Z,43.55
2022-08-26T09:27:51.937Z,42.59
2022-08-26T09:30:35.289Z,43.17
2022-08-26T09:33:17.461Z,43.80
2022-08-26T09:35:48.780Z,41.00
2022-08-26T09:38:33.038Z,42.73
2022-08-26T09:41:08.273Z,42.10
2022-08-26T09:43:35.826Z,42.09
2022-08-26T09:46:25.703Z,42.13
2022-08-26T09:48:53.198Z,41.12
2022-08-26T09:51:24.118Z,41.26
2022-08-26T09:53:56.922Z,41.08
2022-08-26T09:56:23.749Z,41.74
2022-08-26T09:58:51.256Z,38.71
2022-08-26T10:01:24.168Z,40.09
2022-08-26T10:03:55.596Z,39.87
2022-08-26T10:06:28.208Z,40.20
2022-08-26T10:08:59.136Z,38.45
2022-08-26T10:11:47.740Z,39.43
2022-08-26T10:14:50.732Z,39.25
2022-08-26T10:17:41.994Z,39.87
2022-08-26T10:20:23.664Z,39.10
2022-08-26T10:23:23.288Z,39.41
2022-08-26T10:26:05.726Z,37.53
2022-08-26T10:28:47.173Z,39.81
2022-08-26T10:31:51.923Z,39.08
2022-08-26T10:34:21.112Z,38.55
2022-08-26T10:37:16.269Z,38.97
2022-08-26T10:40:29.281Z,39.28
2022-08-26T10:47:28.162Z,36.24
2022-08-26T10:50:02.927Z,36.03
2022-08-26T10:52:46.426Z,34.17
2022-08-26T10:55:43.038Z,34.67
2022-08-26T10:58:56.265Z,33.86
2022-08-26T11:02:00.843Z,33.26
2022-08-26T11:04:48.374Z,32.74
2022-08-26T11:07:39.688Z,33.57
2022-08-26T11:10:17.594Z,33.60
2022-08-26T11:12:49.270Z,31.83
2022-08-26T11:15:26.083Z,32.03
2022-08-26T11:17:53.993Z,33.48
2022-08-26T11:20:46.133Z,31.80
2022-08-26T11:23:23.246Z,31.13
2022-08-26T11:25:57.172Z,31.41
2022-08-26T11:28:48.947Z,29.46
2022-08-26T11:31:18.942Z,30.61
2022-08-26T11:33:51.730Z,28.69
2022-08-26T11:36:43.096Z,27.61
2022-08-26T11:39:54.788Z,29.76
2022-08-26T11:42:46.530Z,29.77
2022-08-26T11:45:27.387Z,28.93
2022-08-26T11:47:54.927Z,27.95
2022-08-26T11:50:28.651Z,27.47
2022-08-26T11:53:04.408Z,27.12
2022-08-26T11:55:43.364Z,26.72
2022-08-26T11:58:12.858Z,25.89
2022-08-26T12:01:06.473Z,26.27
2022-08-26T12:03:58.452Z,25.26
2022-08-26T12:06:45.013Z,25.88
2022-08-26T12:09:22.315Z,25.24
2022-08-26T12:11:49.630Z,25.51
2022-08-26T12:14:27.344Z,25.98
2022-08-26T12:16:54.889Z,26.29
2022-08-26T12:19:27.339Z,27.32
2022-08-26T12:22:21.022Z,27.35
2022-08-26T12:24:55.154Z,25.68
2022-08-26T12:27:25.899Z,27.08
2022-08-26T12:30:08.561Z,28.24
2022-08-26T12:32:57.311Z,29.24
2022-08-26T12:35:28.642Z,31.64
2022-08-26T12:37:59.693Z,32.29
2022-08-26T12:40:47.323Z,32.86
2022-08-26T12:43:43.943Z,33.32
2022-08-26T12:46:17.731Z,32.18
2022-08-26T12:48:49.684Z,34.15
2022-08-26T12:51:29.309Z,33.39
2022-08-26T12:53:58.009Z,33.45
2022-08-26T12:56:39.524Z,33.34
2022-08-26T12:59:24.548Z,34.26
2022-08-26T13:01:53.919Z,34.13
2022-08-26T13:04:37.371Z,34.03
2022-08-26T13:07:26.755Z,34.62
2022-08-26T13:09:57.793Z,34.52
2022-08-26T13:12:37.247Z,34.31
2022-08-26T13:15:05.929Z,34.63
2022-08-26T13:17:34.878Z,34.56
2022-08-26T13:20:04.129Z,34.63
2022-08-26T13:22:33.334Z,34.53
2022-08-26T13:25:00.499Z,34.82
2022-08-26T13:27:27.874Z,34.89
2022-08-26T13:29:57.020Z,35.10
2022-08-26T13:32:27.719Z,35.44
2022-08-26T13:34:56.756Z,35.35
2022-08-26T13:37:24.388Z,36.09
2022-08-26T13:40:07.458Z,35.79
2022-08-26T13:42:34.719Z,35.41
2022-08-26T13:45:02.352Z,35.92
2022-08-26T13:47:29.528Z,35.62
2022-08-26T13:49:56.462Z,35.56
2022-08-26T13:52:30.251Z,35.44
2022-08-26T13:55:01.507Z,35.56
2022-08-26T13:57:29.894Z,35.75
2022-08-26T13:59:59.310Z,35.96
2022-08-26T14:02:31.066Z,36.06
2022-08-26T14:04:58.782Z,36.06
2022-08-26T14:07:26.646Z,41.78
2022-08-26T14:09:53.644Z,44.94
2022-08-26T14:12:20.595Z,49.78
2022-08-26T14:14:48.094Z,52.41
2022-08-26T14:17:21.701Z,55.63
2022-08-26T14:19:51.133Z,58.10
2022-08-26T14:22:22.267Z,59.36
2022-08-26T14:24:50.398Z,60.67
2022-08-26T14:27:17.420Z,58.46
2022-08-26T14:29:44.652Z,60.66
2022-08-26T14:32:24.146Z,63.85
2022-08-26T14:34:51.469Z,65.66
2022-08-26T14:37:18.777Z,66.34
2022-08-26T14:39:45.881Z,65.25
2022-08-26T14:42:16.726Z,63.95
2022-08-26T14:44:47.318Z,63.21
2022-08-26T14:47:14.139Z,61.27
2022-08-26T14:49:40.975Z,59.30
2022-08-26T14:52:07.772Z,56.86
2022-08-26T14:54:34.621Z,56.26
2022-08-26T14:57:07.294Z,53.64
2022-08-26T14:59:49.977Z,54.67
2022-08-26T15:02:32.821Z,55.32
2022-08-26T15:05:02.062Z,54.58
2022-08-26T15:07:32.535Z,54.29
2022-08-26T15:09:59.565Z,52.21
2022-08-26T15:12:27.642Z,52.46
2022-08-26T15:14:54.505Z,52.05
2022-08-26T15:17:21.323Z,52.59
2022-08-26T15:19:48.160Z,53.44
2022-08-26T15:22:15.023Z,53.58
2022-08-26T15:24:42.111Z,53.25
2022-08-26T15:27:09.547Z,53.48
2022-08-26T15:29:36.701Z,53.64
2022-08-26T15:32:04.870Z,54.33
2022-08-26T15:34:31.966Z,54.57
2022-08-26T15:36:58.792Z,56.20
2022-08-26T15:39:25.976Z,57.34
2022-08-26T15:41:52.978Z,59.56
2022-08-26T15:44:19.908Z,60.47
2022-08-26T15:46:49.711Z,61.98
2022-08-26T15:49:18.631Z,66.68
2022-08-26T15:51:48.067Z,74.38
2022-08-26T15:54:18.150Z,77.77
2022-08-26T15:56:45.762Z,77.42
2022-08-26T15:59:15.011Z,73.93
2022-08-26T16:01:43.592Z,80.24
2022-08-26T16:04:12.157Z,82.01
2022-08-26T16:06:41.384Z,86.66
2022-08-26T16:09:08.618Z,87.51
2022-08-26T16:11:36.016Z,83.97
2022-08-26T16:14:04.617Z,88.99
2022-08-26T16:16:32.191Z,90.88
2022-08-26T16:19:01.273Z,85.84
2022-08-26T16:21:30.702Z,86.69
2022-08-26T16:23:59.092Z,85.59
2022-08-26T16:26:38.979Z,89.94
2022-08-26T16:29:12.243Z,89.75
2022-08-26T16:31:40.066Z,91.02
2022-08-26T16:34:09.195Z,87.64
2022-08-26T16:36:38.631Z,87.64
2022-08-26T16:39:20.712Z,85.25
2022-08-26T16:41:50.792Z,87.84
2022-08-26T16:44:18.031Z,87.48
2022-08-26T16:46:45.666Z,86.69
2022-08-26T16:49:12.640Z,88.84
2022-08-26T16:51:39.644Z,86.24
2022-08-26T16:54:08.687Z,90.80
2022-08-26T16:56:37.728Z,92.42
2022-08-26T16:59:09.644Z,93.58
2022-08-26T17:01:36.565Z,97.11
2022-08-26T17:04:04.141Z,100.00
2022-08-26T17:06:31.028Z,99.13
2022-08-26T17:08:57.931Z,99.26
2022-08-26T17:11:24.803Z,100.00
2022-08-26T17:13:51.833Z,100.00
2022-08-26T17:16:26.425Z,96.29
2022-08-26T17:18:56.505Z,95.59
2022-08-26T17:21:24.825Z,96.27
2022-08-26T17:23:51.968Z,93.58
2022-08-26T17:26:19.265Z,94.21
2022-08-26T17:28:46.107Z,98.16
2022-08-26T17:31:13.388Z,100.00
2022-08-26T17:33:40.965Z,100.00
2022-08-26T17:36:09.193Z,99.48
2022-08-26T17:38:37.648Z,100.00
2022-08-26T17:41:13.324Z,100.00
2022-08-26T17:43:40.788Z,100.00
2022-08-26T17:46:10.680Z,100.00
2022-08-26T17:48:39.376Z,100.00
2022-08-26T17:51:10.576Z,100.00
2022-08-26T17:53:38.871Z,100.00
2022-08-26T17:56:13.057Z,100.00
2022-08-26T17:58:41.367Z,98.13
2022-08-26T18:01:18.827Z,100.00
2022-08-26T18:03:46.005Z,100.00
2022-08-26T18:06:14.528Z,100.00
2022-08-26T18:08:42.387Z,100.00
2022-08-26T18:11:20.864Z,100.00
2022-08-26T18:13:51.122Z,100.00
2022-08-26T18:16:19.649Z,100.00
2022-08-26T18:18:48.962Z,100.00
2022-08-26T18:21:23.444Z,100.00
2022-08-26T18:23:51.878Z,100.00
2022-08-26T18:26:31.373Z,100.00
2022-08-26T18:29:00.071Z,100.00
2022-08-26T18:31:28.548Z,100.00
2022-08-26T18:33:56.063Z,100.00
2022-08-26T18:36:29.972Z,100.00
2022-08-26T18:38:58.299Z,100.00
2022-08-26T18:41:33.229Z,100.00
2022-08-26T18:44:00.312Z,100.00
2022-08-26T18:46:30.487Z,100.00
2022-08-26T18:48:58.067Z,100.00
2022-08-26T18:51:32.842Z,100.00
2022-08-26T18:54:04.622Z,100.00
2022-08-26T18:56:33.641Z,100.00
2022-08-26T18:59:01.481Z,100.00
2022-08-26T19:01:30.993Z,100.00
2022-08-26T19:04:01.231Z,100.00
2022-08-26T19:06:32.687Z,100.00
2022-08-26T19:09:00.318Z,100.00
2022-08-26T19:11:32.081Z,100.00
2022-08-26T19:14:07.624Z,100.00
2022-08-26T19:16:36.764Z,100.00
2022-08-26T19:19:04.359Z,100.00
2022-08-26T19:21:33.648Z,100.00
2022-08-26T19:24:03.086Z,100.00
2022-08-26T19:26:31.779Z,100.00
2022-08-26T19:29:00.140Z,100.00
2022-08-26T19:31:27.525Z,100.00
2022-08-26T19:33:54.504Z,100.00
2022-08-26T19:36:25.335Z,100.00
2022-08-26T19:38:53.371Z,100.00
2022-08-26T19:41:36.507Z,100.00
2022-08-26T19:44:12.770Z,100.00
2022-08-26T19:46:40.484Z,100.00
2022-08-26T19:49:07.410Z,100.00
2022-08-26T19:51:36.598Z,100.00
2022-08-26T19:54:04.570Z,100.00
2022-08-26T19:56:32.002Z,100.00
2022-08-26T19:58:58.843Z,100.00
2022-08-26T20:01:25.895Z,100.00
2022-08-26T20:03:53.035Z,100.00
2022-08-26T20:06:21.097Z,100.00
2022-08-26T20:08:50.639Z,100.00
2022-08-26T20:11:18.604Z,100.00
2022-08-26T20:13:47.602Z,100.00
2022-08-26T20:16:15.979Z,100.00
2022-08-26T20:19:03.255Z,100.00
2022-08-26T20:21:35.693Z,100.00
2022-08-26T20:24:10.926Z,100.00
2022-08-26T20:26:41.550Z,100.00
2022-08-26T20:29:11.665Z,100.00
2022-08-26T20:31:39.558Z,100.00
2022-08-26T20:34:07.139Z,100.00
2022-08-26T20:36:34.900Z,100.00
2022-08-26T20:39:01.856Z,100.00
2022-08-26T20:41:29.002Z,100.00
2022-08-26T20:43:57.181Z,100.00
2022-08-26T20:46:25.561Z,100.00
2022-08-26T20:48:54.161Z,100.00
2022-08-26T20:51:23.486Z,100.00
2022-08-26T20:53:51.194Z,100.00
2022-08-26T20:56:23.705Z,100.00
2022-08-26T20:58:58.458Z,100.00
2022-08-26T21:01:34.047Z,100.00
2022-08-26T21:04:05.158Z,100.00
2022-08-26T21:06:33.897Z,100.00
2022-08-26T21:09:02.924Z,100.00
2022-08-26T21:11:30.817Z,100.00
2022-08-26T21:14:07.074Z,100.00
2022-08-26T21:16:44.109Z,100.00
2022-08-26T21:19:15.325Z,100.00
2022-08-26T21:21:44.363Z,100.00
2022-08-26T21:24:12.171Z,100.00
2022-08-26T21:26:39.899Z,100.00
2022-08-26T21:29:09.925Z,100.00
2022-08-26T21:31:41.030Z,100.00
2022-08-26T21:34:12.105Z,100.00
2022-08-26T21:36:39.017Z,100.00
2022-08-26T21:39:10.716Z,100.00
2022-08-26T21:41:39.233Z,100.00
2022-08-26T21:44:06.654Z,100.00
2022-08-26T21:46:36.244Z,100.00
2022-08-26T21:49:07.386Z,100.00
2022-08-26T21:51:38.567Z,100.00
2022-08-26T21:54:11.028Z,100.00
2022-08-26T21:56:46.581Z,100.00
2022-08-26T21:59:16.758Z,100.00
2022-08-26T22:01:43.755Z,100.00
2022-08-26T22:04:10.879Z,100.00
2022-08-26T22:06:46.868Z,100.00
2022-08-26T22:09:17.884Z,100.00
2022-08-26T22:11:45.783Z,100.00
2022-08-26T22:14:14.283Z,100.00
2022-08-26T22:16:41.227Z,100.00
2022-08-26T22:19:13.734Z,100.00
2022-08-26T22:21:45.199Z,100.00
2022-08-26T22:24:12.432Z,100.00
2022-08-26T22:26:39.417Z,100.00
2022-08-26T22:29:07.507Z,100.00
2022-08-26T22:31:37.505Z,100.00
2022-08-26T22:34:12.572Z,100.00
2022-08-26T22:36:44.279Z,100.00
2022-08-26T22:39:19.673Z,100.00
2022-08-26T22:41:48.302Z,100.00
2022-08-26T22:44:16.795Z,100.00
2022-08-26T22:46:45.083Z,100.00
2022-08-26T22:49:17.071Z,100.00
2022-08-26T22:51:45.958Z,100.00
2022-08-26T22:54:14.695Z,100.00
2022-08-26T22:56:43.670Z,100.00
2022-08-26T22:59:12.264Z,100.00
2022-08-26T23:01:42.316Z,100.00
2022-08-26T23:04:10.898Z,100.00
2022-08-26T23:06:41.527Z,100.00
2022-08-26T23:09:09.527Z,100.00
2022-08-26T23:11:39.858Z,100.00
2022-08-26T23:14:09.607Z,100.00
2022-08-26T23:16:41.517Z,100.00
2022-08-26T23:19:14.462Z,100.00
2022-08-26T23:21:41.764Z,100.00
2022-08-26T23:24:09.987Z,100.00
2022-08-26T23:26:37.730Z,100.00
2022-08-26T23:29:07.491Z,100.00
2022-08-26T23:31:36.630Z,100.00
2022-08-26T23:34:22.579Z,100.00
2022-08-26T23:36:52.599Z,100.00
2022-08-26T23:39:20.957Z,100.00
2022-08-26T23:41:47.853Z,100.00
2022-08-26T23:44:19.621Z,100.00
2022-08-26T23:46:46.831Z,100.00
2022-08-26T23:49:14.718Z,100.00
2022-08-26T23:52:00.058Z,100.00
2022-08-26T23:54:27.362Z,100.00
2022-08-26T23:56:54.299Z,100.00
2022-08-26T23:59:21.279Z,100.00
